THY9SD LTFM-LJLJ
Flight info
| Callsign | THY9SD |
|---|---|
| Flight time | N/A |
| Altitude | 36000 |
| Route | VADEN Y520 OSTEX DCT BAKLO DCT XANEX DCT UTEKA DCT SMI DCT VASLE VASLE1R |
| Aircraft | A21N/M-SADE1E2E3FGHIJ1RWY/LB1 |
Departure
| Time | 2026-05-04 09:01 |
|---|---|
| Airport | İstanbul Airport (LTFM) |
Arrival
| Time | N/A |
|---|---|
| Airport | Ljubljana Jože Pučnik Airport (LJLJ) |
| Time | Latitude | Longitude | Altitude | Speed | Heading |
|---|---|---|---|---|---|
| 2026-05-04 08:24 | 41.26768 | 28.73443 | 322 ft | 0 kts | 179° |
| 2026-05-04 08:46 | 41.26805 | 28.73442 | 322 ft | 2 kts | 179° |
| 2026-05-04 08:46 | 41.26821 | 28.73442 | 322 ft | 2 kts | 179° |
| 2026-05-04 08:46 | 41.26836 | 28.73441 | 322 ft | 2 kts | 179° |
| 2026-05-04 08:46 | 41.26851 | 28.73441 | 322 ft | 2 kts | 179° |
| 2026-05-04 08:47 | 41.26863 | 28.73441 | 322 ft | 1 kts | 178° |
| 2026-05-04 08:47 | 41.26869 | 28.73444 | 322 ft | 0 kts | 243° |
| 2026-05-04 08:47 | 41.26870 | 28.73448 | 322 ft | 0 kts | 269° |
| 2026-05-04 08:47 | 41.26868 | 28.73422 | 322 ft | 3 kts | 270° |
| 2026-05-04 08:48 | 41.26868 | 28.73412 | 322 ft | 0 kts | 270° |
| 2026-05-04 08:50 | 41.26868 | 28.73408 | 322 ft | 1 kts | 270° |
| 2026-05-04 08:50 | 41.26868 | 28.73382 | 322 ft | 4 kts | 270° |
| 2026-05-04 08:51 | 41.26868 | 28.73318 | 321 ft | 8 kts | 270° |
| 2026-05-04 08:51 | 41.26866 | 28.73239 | 320 ft | 9 kts | 269° |
| 2026-05-04 08:51 | 41.26860 | 28.73145 | 318 ft | 10 kts | 244° |
| 2026-05-04 08:51 | 41.26799 | 28.73111 | 319 ft | 10 kts | 180° |
| 2026-05-04 08:52 | 41.26728 | 28.73111 | 320 ft | 10 kts | 180° |
| 2026-05-04 08:52 | 41.26655 | 28.73112 | 321 ft | 10 kts | 180° |
| 2026-05-04 08:52 | 41.26582 | 28.73113 | 322 ft | 10 kts | 179° |
| 2026-05-04 08:52 | 41.26508 | 28.73114 | 323 ft | 10 kts | 180° |
| 2026-05-04 08:53 | 41.26434 | 28.73114 | 323 ft | 10 kts | 181° |
| 2026-05-04 08:54 | 41.26215 | 28.72956 | 325 ft | 4 kts | 271° |
| 2026-05-04 08:55 | 41.26216 | 28.72915 | 325 ft | 4 kts | 270° |
| 2026-05-04 08:55 | 41.26216 | 28.72876 | 325 ft | 4 kts | 269° |
| 2026-05-04 08:55 | 41.26215 | 28.72839 | 325 ft | 3 kts | 270° |
| 2026-05-04 08:55 | 41.26215 | 28.72802 | 325 ft | 3 kts | 270° |
| 2026-05-04 08:57 | 41.26215 | 28.72549 | 325 ft | 3 kts | 290° |
| 2026-05-04 09:01 | 41.28718 | 28.72494 | 610 ft | 170 kts | 358° |
| 2026-05-04 09:01 | 41.29848 | 28.72489 | 1446 ft | 162 kts | 358° |
| 2026-05-04 09:01 | 41.30924 | 28.72444 | 2230 ft | 152 kts | 358° |
| 2026-05-04 09:01 | 41.31964 | 28.72381 | 2781 ft | 150 kts | 357° |
| 2026-05-04 09:02 | 41.33006 | 28.72318 | 3275 ft | 152 kts | 0° |
| 2026-05-04 09:02 | 41.34113 | 28.72369 | 3596 ft | 165 kts | 3° |
| 2026-05-04 09:02 | 41.35302 | 28.72446 | 3901 ft | 180 kts | 2° |
| 2026-05-04 09:02 | 41.36596 | 28.72498 | 4209 ft | 195 kts | 360° |
| 2026-05-04 09:03 | 41.37978 | 28.72049 | 4413 ft | 219 kts | 332° |
| 2026-05-04 09:03 | 41.39114 | 28.70598 | 4843 ft | 239 kts | 307° |
| 2026-05-04 09:03 | 41.39988 | 28.68650 | 5370 ft | 250 kts | 306° |
| 2026-05-04 09:03 | 41.40898 | 28.66647 | 5997 ft | 256 kts | 306° |
| 2026-05-04 09:04 | 41.41823 | 28.64613 | 6741 ft | 259 kts | 306° |
| 2026-05-04 09:04 | 41.42750 | 28.62565 | 7469 ft | 262 kts | 306° |
| 2026-05-04 09:04 | 41.43699 | 28.60462 | 8180 ft | 265 kts | 306° |
| 2026-05-04 09:04 | 41.44650 | 28.58354 | 8867 ft | 268 kts | 307° |
| 2026-05-04 09:05 | 41.45612 | 28.56221 | 9524 ft | 272 kts | 307° |
| 2026-05-04 09:05 | 41.46586 | 28.54058 | 10172 ft | 275 kts | 307° |
| 2026-05-04 09:05 | 41.47584 | 28.51845 | 10635 ft | 286 kts | 307° |
| 2026-05-04 09:05 | 41.48631 | 28.49530 | 10930 ft | 301 kts | 307° |
| 2026-05-04 09:06 | 41.49736 | 28.47076 | 11381 ft | 311 kts | 307° |
| 2026-05-04 09:07 | 41.57704 | 28.29212 | 15479 ft | 332 kts | 305° |
| 2026-05-04 09:08 | 41.58780 | 28.26476 | 16011 ft | 336 kts | 303° |
| 2026-05-04 09:08 | 41.59843 | 28.23680 | 16531 ft | 340 kts | 303° |
| 2026-05-04 09:08 | 41.60900 | 28.20877 | 17046 ft | 342 kts | 302° |
| 2026-05-04 09:08 | 41.61976 | 28.18020 | 17564 ft | 344 kts | 303° |
| 2026-05-04 09:09 | 41.63049 | 28.15170 | 18074 ft | 346 kts | 302° |
| 2026-05-04 09:09 | 41.64132 | 28.12293 | 18576 ft | 348 kts | 302° |
| 2026-05-04 09:09 | 41.65230 | 28.09372 | 19010 ft | 352 kts | 302° |
| 2026-05-04 09:09 | 41.66331 | 28.06452 | 19398 ft | 356 kts | 302° |
| 2026-05-04 09:10 | 41.67481 | 28.03523 | 19799 ft | 358 kts | 305° |
| 2026-05-04 09:10 | 41.68774 | 28.00675 | 20187 ft | 359 kts | 308° |
| 2026-05-04 09:10 | 41.70129 | 27.97870 | 20565 ft | 363 kts | 308° |
| 2026-05-04 09:10 | 41.71511 | 27.95024 | 20940 ft | 366 kts | 308° |
| 2026-05-04 09:11 | 41.72900 | 27.92163 | 21288 ft | 370 kts | 308° |
| 2026-05-04 09:11 | 41.74306 | 27.89258 | 21634 ft | 374 kts | 308° |
| 2026-05-04 09:11 | 41.75737 | 27.86293 | 21991 ft | 378 kts | 308° |
| 2026-05-04 09:11 | 41.77151 | 27.83359 | 22398 ft | 379 kts | 308° |
| 2026-05-04 09:12 | 41.78592 | 27.80363 | 22763 ft | 382 kts | 308° |
| 2026-05-04 09:12 | 41.79958 | 27.77523 | 23059 ft | 386 kts | 308° |
| 2026-05-04 09:14 | 41.90406 | 27.55709 | 25285 ft | 409 kts | 308° |
| 2026-05-04 09:14 | 41.91946 | 27.52476 | 25593 ft | 412 kts | 308° |
| 2026-05-04 09:14 | 41.93515 | 27.49184 | 25904 ft | 415 kts | 307° |
| 2026-05-04 09:14 | 41.95068 | 27.45917 | 26188 ft | 419 kts | 308° |
| 2026-05-04 09:15 | 41.96633 | 27.42626 | 26489 ft | 421 kts | 307° |
| 2026-05-04 09:15 | 41.98204 | 27.39315 | 26787 ft | 424 kts | 307° |
| 2026-05-04 09:15 | 41.99790 | 27.35970 | 27088 ft | 426 kts | 307° |
| 2026-05-04 09:15 | 42.01392 | 27.32582 | 27367 ft | 429 kts | 307° |
| 2026-05-04 09:17 | 42.12952 | 27.03973 | 29519 ft | 451 kts | 300° |
| 2026-05-04 09:18 | 42.14407 | 27.00194 | 29761 ft | 451 kts | 304° |
| 2026-05-04 09:18 | 42.16089 | 26.96693 | 30003 ft | 450 kts | 310° |
| 2026-05-04 09:18 | 42.18058 | 26.93389 | 30265 ft | 448 kts | 316° |
| 2026-05-04 09:18 | 42.20235 | 26.90412 | 30523 ft | 447 kts | 322° |
| 2026-05-04 09:19 | 42.22530 | 26.87620 | 30801 ft | 447 kts | 323° |
| 2026-05-04 09:19 | 42.24852 | 26.84861 | 31052 ft | 448 kts | 323° |
| 2026-05-04 09:19 | 42.27191 | 26.82081 | 31275 ft | 451 kts | 323° |
| 2026-05-04 09:19 | 42.29549 | 26.79263 | 31485 ft | 453 kts | 323° |
| 2026-05-04 09:20 | 42.31907 | 26.76432 | 31713 ft | 455 kts | 323° |
| 2026-05-04 09:20 | 42.34248 | 26.73611 | 31920 ft | 457 kts | 323° |
| 2026-05-04 09:20 | 42.36622 | 26.70741 | 32106 ft | 460 kts | 322° |
| 2026-05-04 09:20 | 42.39030 | 26.67823 | 32311 ft | 462 kts | 322° |
| 2026-05-04 09:21 | 42.41405 | 26.64940 | 32517 ft | 463 kts | 322° |
| 2026-05-04 09:21 | 42.43786 | 26.62046 | 32782 ft | 464 kts | 322° |
| 2026-05-04 09:21 | 42.46186 | 26.59127 | 33077 ft | 463 kts | 322° |
| 2026-05-04 09:21 | 42.48571 | 26.56195 | 33348 ft | 463 kts | 320° |
| 2026-05-04 09:22 | 42.50850 | 26.53102 | 33655 ft | 464 kts | 316° |
| 2026-05-04 09:22 | 42.52976 | 26.49836 | 33934 ft | 465 kts | 313° |
| 2026-05-04 09:22 | 42.54935 | 26.46410 | 34175 ft | 466 kts | 309° |
| 2026-05-04 09:22 | 42.56751 | 26.42782 | 34400 ft | 467 kts | 304° |
| 2026-05-04 09:23 | 42.58406 | 26.38972 | 34623 ft | 469 kts | 301° |
| 2026-05-04 09:23 | 42.59958 | 26.35075 | 34772 ft | 470 kts | 300° |
| 2026-05-04 09:23 | 42.61475 | 26.31193 | 34930 ft | 470 kts | 299° |
| 2026-05-04 09:23 | 42.63007 | 26.27256 | 35118 ft | 469 kts | 299° |
| 2026-05-04 09:25 | 42.73629 | 26.00084 | 36032 ft | 465 kts | 300° |
| 2026-05-04 09:25 | 42.75131 | 25.96236 | 36044 ft | 464 kts | 299° |
| 2026-05-04 09:26 | 42.78132 | 25.88528 | 36050 ft | 464 kts | 299° |
| 2026-05-04 09:26 | 42.81135 | 25.80788 | 36063 ft | 464 kts | 300° |
| 2026-05-04 09:27 | 42.84134 | 25.73045 | 36076 ft | 465 kts | 299° |
| 2026-05-04 09:27 | 42.87131 | 25.65283 | 36083 ft | 464 kts | 299° |
| 2026-05-04 09:28 | 42.90119 | 25.57518 | 36086 ft | 464 kts | 299° |
| 2026-05-04 09:28 | 42.93099 | 25.49752 | 36091 ft | 463 kts | 299° |
| 2026-05-04 09:29 | 42.96057 | 25.42024 | 36097 ft | 463 kts | 299° |
| 2026-05-04 09:29 | 42.99025 | 25.34254 | 36111 ft | 463 kts | 298° |
| 2026-05-04 09:30 | 43.01981 | 25.26488 | 36112 ft | 462 kts | 298° |
| 2026-05-04 09:30 | 43.04925 | 25.18732 | 36122 ft | 461 kts | 298° |
| 2026-05-04 09:31 | 43.07862 | 25.10968 | 36110 ft | 461 kts | 298° |
| 2026-05-04 09:31 | 43.10795 | 25.03190 | 36111 ft | 461 kts | 298° |
| 2026-05-04 09:32 | 43.13618 | 24.95313 | 36099 ft | 462 kts | 295° |
| 2026-05-04 09:34 | 43.23795 | 24.63128 | 36109 ft | 460 kts | 295° |
| 2026-05-04 09:34 | 43.26305 | 24.55136 | 36110 ft | 460 kts | 296° |
| 2026-05-04 09:35 | 43.28829 | 24.47074 | 36106 ft | 458 kts | 296° |
| 2026-05-04 09:35 | 43.31331 | 24.39056 | 36112 ft | 458 kts | 296° |
| 2026-05-04 09:37 | 43.41201 | 24.07194 | 36109 ft | 452 kts | 296° |
| 2026-05-04 09:38 | 43.43643 | 23.99247 | 36115 ft | 451 kts | 296° |
| 2026-05-04 09:38 | 43.46084 | 23.91284 | 36113 ft | 451 kts | 296° |
| 2026-05-04 09:39 | 43.48498 | 23.83381 | 36114 ft | 451 kts | 296° |
| 2026-05-04 09:39 | 43.50921 | 23.75423 | 36122 ft | 450 kts | 296° |
| 2026-05-04 09:40 | 43.53336 | 23.67468 | 36122 ft | 451 kts | 296° |
| 2026-05-04 09:40 | 43.55739 | 23.59530 | 36119 ft | 451 kts | 296° |
| 2026-05-04 09:42 | 43.65291 | 23.27722 | 36111 ft | 450 kts | 296° |
| 2026-05-04 09:43 | 43.67667 | 23.19751 | 36110 ft | 451 kts | 296° |
| 2026-05-04 09:43 | 43.70033 | 23.11790 | 36120 ft | 451 kts | 296° |
| 2026-05-04 09:44 | 43.72404 | 23.03779 | 36102 ft | 450 kts | 296° |
| 2026-05-04 09:46 | 43.81782 | 22.71847 | 36125 ft | 448 kts | 296° |
| 2026-05-04 09:46 | 43.84099 | 22.63893 | 36132 ft | 447 kts | 296° |
| 2026-05-04 09:47 | 43.86417 | 22.55910 | 36135 ft | 447 kts | 296° |
| 2026-05-04 09:49 | 43.96606 | 22.25456 | 36135 ft | 440 kts | 303° |
| 2026-05-04 09:51 | 44.06688 | 21.99440 | 36138 ft | 436 kts | 302° |
| 2026-05-04 09:51 | 44.09527 | 21.92056 | 36132 ft | 436 kts | 303° |
| 2026-05-04 09:52 | 44.12392 | 21.84589 | 36136 ft | 436 kts | 302° |
| 2026-05-04 09:52 | 44.15230 | 21.77175 | 36132 ft | 435 kts | 302° |
| 2026-05-04 09:53 | 44.18053 | 21.69776 | 36131 ft | 435 kts | 302° |
| 2026-05-04 09:53 | 44.20889 | 21.62325 | 36136 ft | 435 kts | 302° |
| 2026-05-04 09:54 | 44.23706 | 21.54898 | 36141 ft | 434 kts | 302° |
| 2026-05-04 09:54 | 44.26516 | 21.47473 | 36130 ft | 433 kts | 302° |
| 2026-05-04 09:55 | 44.29314 | 21.40066 | 36127 ft | 434 kts | 302° |
| 2026-05-04 09:55 | 44.32095 | 21.32680 | 36141 ft | 433 kts | 302° |
| 2026-05-04 09:56 | 44.34884 | 21.25250 | 36137 ft | 433 kts | 302° |
| 2026-05-04 09:56 | 44.37678 | 21.17789 | 36137 ft | 433 kts | 302° |
| 2026-05-04 09:57 | 44.40443 | 21.10389 | 36137 ft | 432 kts | 302° |
| 2026-05-04 09:57 | 44.43219 | 21.02935 | 36143 ft | 432 kts | 302° |
| 2026-05-04 09:58 | 44.45985 | 20.95493 | 36146 ft | 432 kts | 302° |
| 2026-05-04 09:58 | 44.48744 | 20.88046 | 36143 ft | 432 kts | 302° |
| 2026-05-04 10:00 | 44.59709 | 20.58249 | 36147 ft | 431 kts | 301° |
| 2026-05-04 10:04 | 44.78701 | 20.05858 | 36155 ft | 431 kts | 300° |
| 2026-05-04 10:04 | 44.81387 | 19.98364 | 36155 ft | 431 kts | 300° |
| 2026-05-04 10:05 | 44.84087 | 19.90814 | 36150 ft | 430 kts | 300° |
| 2026-05-04 10:05 | 44.86754 | 19.83331 | 36145 ft | 430 kts | 300° |
| 2026-05-04 10:06 | 44.89420 | 19.75830 | 36134 ft | 430 kts | 300° |
| 2026-05-04 10:06 | 44.92094 | 19.68288 | 36128 ft | 430 kts | 300° |
| 2026-05-04 10:08 | 45.01133 | 19.42007 | 36119 ft | 432 kts | 295° |
| 2026-05-04 10:08 | 45.03115 | 19.34015 | 36112 ft | 433 kts | 291° |
| 2026-05-04 10:09 | 45.04994 | 19.25978 | 36112 ft | 433 kts | 291° |
| 2026-05-04 10:09 | 45.06880 | 19.17886 | 36109 ft | 432 kts | 291° |
| 2026-05-04 10:10 | 45.08745 | 19.09856 | 36102 ft | 432 kts | 291° |
| 2026-05-04 10:10 | 45.10612 | 19.01792 | 36104 ft | 432 kts | 291° |
| 2026-05-04 10:11 | 45.12469 | 18.93742 | 36104 ft | 431 kts | 291° |
| 2026-05-04 10:11 | 45.14318 | 18.85703 | 36115 ft | 431 kts | 291° |
| 2026-05-04 10:12 | 45.16155 | 18.77682 | 36110 ft | 431 kts | 291° |
| 2026-05-04 10:12 | 45.17989 | 18.69647 | 36110 ft | 431 kts | 291° |
| 2026-05-04 10:13 | 45.19830 | 18.61550 | 36102 ft | 430 kts | 291° |
| 2026-05-04 10:13 | 45.21641 | 18.53557 | 36105 ft | 429 kts | 291° |
| 2026-05-04 10:14 | 45.23459 | 18.45500 | 36107 ft | 429 kts | 291° |
| 2026-05-04 10:16 | 45.30660 | 18.13291 | 36100 ft | 430 kts | 290° |
| 2026-05-04 10:16 | 45.32444 | 18.05237 | 36102 ft | 429 kts | 290° |
| 2026-05-04 10:17 | 45.34219 | 17.97192 | 36104 ft | 428 kts | 290° |
| 2026-05-04 10:19 | 45.41237 | 17.65077 | 36077 ft | 429 kts | 289° |
| 2026-05-04 10:19 | 45.42103 | 17.61079 | 35829 ft | 428 kts | 290° |
| 2026-05-04 10:19 | 45.42978 | 17.57032 | 35586 ft | 425 kts | 289° |
| 2026-05-04 10:20 | 45.43846 | 17.53006 | 35341 ft | 423 kts | 289° |
| 2026-05-04 10:20 | 45.44709 | 17.49001 | 35097 ft | 420 kts | 289° |
| 2026-05-04 10:20 | 45.45552 | 17.45077 | 34856 ft | 418 kts | 289° |
| 2026-05-04 10:20 | 45.46400 | 17.41126 | 34612 ft | 418 kts | 289° |
| 2026-05-04 10:21 | 45.47254 | 17.37139 | 34334 ft | 418 kts | 289° |
| 2026-05-04 10:21 | 45.48104 | 17.33167 | 34057 ft | 419 kts | 289° |
| 2026-05-04 10:21 | 45.48970 | 17.29108 | 33775 ft | 420 kts | 289° |
| 2026-05-04 10:21 | 45.49810 | 17.25161 | 33501 ft | 421 kts | 289° |
| 2026-05-04 10:22 | 45.51511 | 17.17154 | 32950 ft | 424 kts | 289° |
| 2026-05-04 10:22 | 45.52352 | 17.13179 | 32678 ft | 425 kts | 288° |
| 2026-05-04 10:22 | 45.53202 | 17.09158 | 32405 ft | 426 kts | 289° |
| 2026-05-04 10:23 | 45.54055 | 17.05114 | 32129 ft | 425 kts | 288° |
| 2026-05-04 10:23 | 45.54902 | 17.01088 | 31854 ft | 423 kts | 288° |
| 2026-05-04 10:25 | 45.60697 | 16.73327 | 29821 ft | 413 kts | 288° |
| 2026-05-04 10:25 | 45.61509 | 16.69411 | 29395 ft | 410 kts | 288° |
| 2026-05-04 10:25 | 45.62315 | 16.65511 | 28946 ft | 407 kts | 288° |
| 2026-05-04 10:25 | 45.63104 | 16.61688 | 28486 ft | 404 kts | 288° |
| 2026-05-04 10:26 | 45.63897 | 16.57840 | 28017 ft | 401 kts | 288° |
| 2026-05-04 10:26 | 45.64679 | 16.54032 | 27551 ft | 398 kts | 288° |
| 2026-05-04 10:26 | 45.65447 | 16.50296 | 27088 ft | 395 kts | 288° |
| 2026-05-04 10:26 | 45.66222 | 16.46509 | 26633 ft | 391 kts | 288° |
| 2026-05-04 10:27 | 45.66978 | 16.42816 | 26183 ft | 388 kts | 288° |
| 2026-05-04 10:27 | 45.67730 | 16.39130 | 25729 ft | 385 kts | 287° |
| 2026-05-04 10:27 | 45.68471 | 16.35494 | 25277 ft | 383 kts | 287° |
| 2026-05-04 10:27 | 45.69212 | 16.31847 | 24820 ft | 380 kts | 287° |
| 2026-05-04 10:28 | 45.69942 | 16.28243 | 24351 ft | 378 kts | 286° |